createdAt,value
2017-04-03T07:01:19.269Z,200
2017-04-03T07:02:19.645Z,205
2017-04-03T07:03:19.641Z,210
2017-04-03T07:04:19.709Z,215
2017-04-03T07:05:19.416Z,230
2017-04-03T07:06:20.078Z,245
2017-04-03T07:07:19.792Z,250
2017-04-03T07:08:20.140Z,255
2017-04-03T07:09:19.565Z,260
2017-04-03T07:10:19.924Z,270
2017-04-03T07:11:20.253Z,285
2017-04-03T07:12:19.994Z,300
2017-04-03T07:13:20.035Z,330
2017-04-03T07:14:19.756Z,335
2017-04-03T07:15:20.103Z,345
2017-04-03T07:16:20.451Z,370
2017-04-03T07:17:19.883Z,365
2017-04-03T07:18:20.525Z,400
2017-04-03T07:19:20.253Z,430
2017-04-03T07:20:20.297Z,415
2017-04-03T07:21:20.029Z,495
2017-04-03T07:22:20.377Z,635
2017-04-03T07:23:20.107Z,585
2017-04-03T07:24:20.145Z,610
2017-04-03T07:25:20.492Z,660
2017-04-03T07:26:20.835Z,545
2017-04-03T07:27:20.268Z,490
2017-04-03T07:28:20.308Z,475
2017-04-03T07:29:20.744Z,470
2017-04-03T07:30:20.690Z,445
2017-04-03T07:31:20.480Z,345
2017-04-03T07:32:21.127Z,285
2017-04-03T07:33:21.121Z,255
2017-04-03T07:34:21.166Z,245
2017-04-03T07:35:20.892Z,240
2017-04-03T07:36:20.931Z,235
2017-04-03T07:37:20.971Z,230
2017-04-03T07:38:20.708Z,235
2017-04-03T07:39:21.050Z,220
2017-04-03T07:40:21.397Z,210
2017-04-03T07:41:20.840Z,195
2017-04-03T07:42:21.479Z,180
2017-04-03T07:43:20.908Z,170
2017-04-03T07:44:21.917Z,160
2017-04-03T07:45:21.289Z,155
2017-04-03T07:46:21.329Z,155
2017-04-03T07:47:21.386Z,150
2017-04-03T07:48:21.114Z,150
2017-04-03T07:49:21.145Z,150
2017-04-03T07:50:21.190Z,150
2017-04-03T07:51:21.529Z,160
2017-04-03T07:52:21.562Z,175
2017-04-03T07:53:21.388Z,200
2017-04-03T07:54:21.666Z,230
2017-04-03T07:55:21.986Z,260
2017-04-03T07:56:21.432Z,300
2017-04-03T07:57:21.455Z,335
2017-04-03T07:58:22.145Z,385
2017-04-03T07:59:21.842Z,455
2017-04-03T08:00:21.876Z,620
2017-04-03T08:01:21.629Z,635
2017-04-03T08:02:21.672Z,700
2017-04-03T08:03:22.000Z,590
2017-04-03T08:04:22.048Z,505
2017-04-03T08:05:22.599Z,500
2017-04-03T08:06:22.121Z,340
2017-04-03T08:07:22.154Z,270
2017-04-03T08:08:21.920Z,240
2017-04-03T08:09:22.231Z,225
2017-04-03T08:10:22.582Z,230
2017-04-03T08:11:22.326Z,250
2017-04-03T08:12:22.330Z,285
2017-04-03T08:13:22.398Z,340
2017-04-03T08:14:22.133Z,400
2017-04-03T08:15:22.872Z,465
2017-04-03T08:16:22.517Z,645
2017-04-03T08:17:22.550Z,535
2017-04-03T08:18:22.912Z,525
2017-04-03T08:19:22.327Z,635
2017-04-03T08:20:22.393Z,670
2017-04-03T08:21:22.419Z,940
2017-04-03T08:22:23.082Z,640
2017-04-03T08:23:22.833Z,1115
2017-04-03T08:24:22.883Z,640
2017-04-03T08:25:23.197Z,660
2017-04-03T08:26:23.235Z,645
2017-04-03T08:27:22.675Z,720
2017-04-03T08:28:22.728Z,770
2017-04-03T08:29:23.057Z,1290
2017-04-03T08:30:22.798Z,805
2017-04-03T08:31:23.131Z,1035
2017-04-03T08:32:23.563Z,645
2017-04-03T08:33:23.535Z,625
2017-04-03T08:34:23.578Z,835
2017-04-03T08:35:23.308Z,830
2017-04-03T08:36:23.658Z,810
2017-04-03T08:37:23.094Z,675
2017-04-03T08:38:23.441Z,1040
2017-04-03T08:39:23.482Z,695
2017-04-03T08:40:23.832Z,1010
2017-04-03T08:41:23.270Z,1105
2017-04-03T08:42:23.603Z,1180
2017-04-03T08:43:23.361Z,705
2017-04-03T08:44:23.395Z,665
2017-04-03T08:45:23.436Z,620
2017-04-03T08:46:23.796Z,580
2017-04-03T08:47:23.534Z,625
2017-04-03T08:48:24.189Z,505
2017-04-03T08:49:23.656Z,470
2017-04-03T08:50:24.309Z,470
2017-04-03T08:51:24.071Z,415
2017-04-03T08:52:24.051Z,370
2017-04-03T08:53:24.708Z,335
2017-04-03T08:54:24.192Z,320
2017-04-03T08:55:24.198Z,310
2017-04-03T08:56:24.544Z,300
2017-04-03T08:57:24.287Z,285
2017-04-03T08:58:24.934Z,265
2017-04-03T08:59:24.663Z,250
2017-04-03T09:00:24.159Z,250
2017-04-03T09:01:24.443Z,260
2017-04-03T09:02:24.182Z,290
2017-04-03T09:03:24.211Z,330
2017-04-03T09:04:24.572Z,365
2017-04-03T09:05:24.314Z,380
2017-04-03T09:06:24.361Z,390
2017-04-03T09:07:24.384Z,400
2017-04-03T09:08:24.726Z,405
2017-04-03T09:09:24.487Z,460
2017-04-03T09:10:24.515Z,480
2017-04-03T09:11:24.877Z,590
2017-04-03T09:12:24.593Z,605
2017-04-03T09:13:24.944Z,560
2017-04-03T09:14:24.688Z,590
2017-04-03T09:15:24.728Z,620
2017-04-03T09:16:24.758Z,625
2017-04-03T09:17:24.811Z,780
2017-04-03T09:18:25.141Z,685
2017-04-03T09:19:25.231Z,635
2017-04-03T09:20:25.236Z,720
2017-04-03T09:21:25.270Z,810
2017-04-03T09:22:25.312Z,1505
2017-04-03T09:23:25.668Z,1630
2017-04-03T09:24:25.460Z,1555
2017-04-03T09:25:26.064Z,1155
2017-04-03T09:26:25.483Z,1220
2017-04-03T09:27:25.231Z,1215
2017-04-03T09:28:25.595Z,870
2017-04-03T09:29:25.934Z,750
2017-04-03T09:30:26.015Z,655
2017-04-03T09:31:25.418Z,600
2017-04-03T09:32:26.380Z,545
2017-04-03T09:33:25.836Z,515
2017-04-03T09:34:25.539Z,545
2017-04-03T09:35:25.892Z,605
2017-04-03T09:36:25.939Z,795
2017-04-03T09:37:25.694Z,710
2017-04-03T09:38:26.030Z,730
2017-04-03T09:39:26.069Z,815
2017-04-03T09:40:26.422Z,890
2017-04-03T09:41:26.160Z,975
2017-04-03T09:42:25.906Z,1385
2017-04-03T09:43:26.249Z,1125
2017-04-03T09:44:26.300Z,760
2017-04-03T09:45:27.058Z,795
2017-04-03T09:46:26.088Z,830
2017-04-03T09:47:26.135Z,875
2017-04-03T09:48:26.238Z,845
2017-04-03T09:49:26.923Z,950
2017-04-03T09:50:26.265Z,1060
2017-04-03T09:51:26.333Z,880
2017-04-03T09:52:26.356Z,1005
2017-04-03T09:53:26.714Z,1195
2017-04-03T09:54:27.172Z,1675
2017-04-03T09:55:26.503Z,1660
2017-04-03T09:56:26.844Z,1670
2017-04-03T09:57:26.888Z,1080
2017-04-03T09:58:27.240Z,1675
2017-04-03T09:59:26.981Z,1365
2017-04-03T10:00:27.052Z,1650
2017-04-03T10:01:27.102Z,1400
2017-04-03T10:02:27.198Z,1390
2017-04-03T10:03:27.194Z,1565
2017-04-03T10:04:27.251Z,1605
2017-04-03T10:05:26.972Z,1400
2017-04-03T10:06:27.636Z,1555
2017-04-03T10:07:27.711Z,885
2017-04-03T10:08:27.131Z,865
2017-04-03T10:09:27.175Z,895
2017-04-03T10:10:27.533Z,740
2017-04-03T10:11:27.273Z,710
2017-04-03T10:12:27.927Z,815
2017-04-03T10:13:28.295Z,955
2017-04-03T10:14:27.426Z,655
2017-04-03T10:15:27.795Z,585
2017-04-03T10:16:28.215Z,550
2017-04-03T10:17:27.891Z,560
2017-04-03T10:18:27.926Z,600
2017-04-03T10:19:27.971Z,650
2017-04-03T10:20:28.329Z,735
2017-04-03T10:21:28.077Z,905
2017-04-03T10:22:28.239Z,1415
2017-04-03T10:23:28.182Z,1215
2017-04-03T10:24:27.905Z,1000
2017-04-03T10:25:27.970Z,915
2017-04-03T10:26:28.099Z,1475
2017-04-03T10:27:28.356Z,1260
2017-04-03T10:28:28.130Z,1595
2017-04-03T10:29:28.498Z,1155
2017-04-03T10:30:28.225Z,770
2017-04-03T10:31:28.559Z,1390
2017-04-03T10:32:28.289Z,1655
2017-04-03T10:33:28.641Z,1670
2017-04-03T10:34:28.695Z,1550
2017-04-03T10:35:29.355Z,665
2017-04-03T10:36:28.486Z,575
2017-04-03T10:37:28.861Z,1225
2017-04-03T10:38:29.203Z,1460
2017-04-03T10:39:29.239Z,1680
2017-04-03T10:40:28.684Z,1215
2017-04-03T10:41:28.741Z,1725
2017-04-03T10:42:28.857Z,1185
2017-04-03T10:43:28.854Z,1330
2017-04-03T10:44:28.878Z,770
2017-04-03T10:45:28.957Z,710
2017-04-03T10:46:28.982Z,730
2017-04-03T10:47:29.024Z,655
2017-04-03T10:48:29.081Z,725
2017-04-03T10:49:29.441Z,1600
2017-04-03T10:50:29.196Z,1040
2017-04-03T10:51:29.611Z,1165
2017-04-03T10:52:29.888Z,965
2017-04-03T10:53:29.941Z,970
2017-04-03T10:54:29.378Z,1440
2017-04-03T10:55:29.427Z,1630
2017-04-03T10:56:29.772Z,1660
2017-04-03T10:57:29.514Z,1705
2017-04-03T10:58:29.557Z,1690
2017-04-03T10:59:29.925Z,1200
2017-04-03T11:00:30.274Z,1070
2017-04-03T11:01:30.311Z,720
2017-04-03T11:02:29.766Z,650
2017-04-03T11:03:29.803Z,600
2017-04-03T11:04:30.462Z,935
2017-04-03T11:05:30.202Z,775
2017-04-03T11:06:30.263Z,1245
2017-04-03T11:07:30.601Z,565
2017-04-03T11:08:30.349Z,505
2017-04-03T11:09:30.109Z,475
2017-04-03T11:10:30.161Z,475
2017-04-03T11:11:30.194Z,815
2017-04-03T11:12:30.548Z,1005
2017-04-03T11:13:30.928Z,945
2017-04-03T11:14:30.331Z,740
2017-04-03T11:15:30.675Z,685
2017-04-03T11:16:30.454Z,675
2017-04-03T11:17:30.467Z,655
2017-04-03T11:18:30.529Z,640
2017-04-03T11:19:30.571Z,610
2017-04-03T11:20:31.228Z,585
2017-04-03T11:21:30.661Z,580
2017-04-03T11:22:30.748Z,620
2017-04-03T11:23:31.058Z,560
2017-04-03T11:24:30.803Z,545
2017-04-03T11:25:31.447Z,505
2017-04-03T11:26:30.897Z,515
2017-04-03T11:27:31.568Z,510
2017-04-03T11:28:31.596Z,520
2017-04-03T11:29:31.342Z,545
2017-04-03T11:30:31.396Z,535
2017-04-03T11:31:31.445Z,480
2017-04-03T11:32:31.190Z,450
2017-04-03T11:33:31.517Z,450
2017-04-03T11:34:31.580Z,435
2017-04-03T11:35:31.322Z,420
2017-04-03T11:36:31.656Z,410
2017-04-03T11:37:31.725Z,435
2017-04-03T11:38:31.456Z,445
2017-04-03T11:39:31.820Z,435
2017-04-03T11:40:31.850Z,435
2017-04-03T11:41:31.887Z,455
2017-04-03T11:42:32.242Z,485
2017-04-03T11:43:31.674Z,445
2017-04-03T11:44:31.722Z,430
2017-04-03T11:45:32.367Z,440
2017-04-03T11:46:32.111Z,410
2017-04-03T11:47:32.183Z,390
2017-04-03T11:48:32.512Z,385
2017-04-03T11:49:32.409Z,380
2017-04-03T11:50:31.986Z,355
2017-04-03T11:51:32.029Z,355
2017-04-03T11:52:32.376Z,350
2017-04-03T11:53:32.117Z,350
2017-04-03T11:54:32.473Z,355
2017-04-03T11:55:32.214Z,360
2017-04-03T11:56:32.246Z,355
2017-04-03T11:57:32.924Z,345
2017-04-03T11:58:32.631Z,340
2017-04-03T11:59:32.704Z,330
2017-04-03T12:00:32.734Z,330
2017-04-03T12:01:32.770Z,325
2017-04-03T12:02:32.501Z,325
2017-04-03T12:03:32.871Z,320
2017-04-03T12:04:32.602Z,320
2017-04-03T12:05:32.941Z,310
2017-04-03T12:06:33.002Z,305
2017-04-03T12:07:32.836Z,295
2017-04-03T12:08:33.081Z,290
2017-04-03T12:09:33.409Z,290
2017-04-03T12:10:33.448Z,290
2017-04-03T12:11:32.892Z,285
2017-04-03T12:12:33.237Z,280
2017-04-03T12:13:32.975Z,275
2017-04-03T12:14:33.039Z,270
2017-04-03T12:15:33.066Z,265
2017-04-03T12:16:33.104Z,260
2017-04-03T12:17:33.772Z,260
2017-04-03T12:18:33.186Z,255
2017-04-03T12:19:33.556Z,255
2017-04-03T12:20:33.282Z,255
2017-04-03T12:21:33.321Z,250
2017-04-03T12:22:33.365Z,250
2017-04-03T12:23:33.413Z,245
2017-04-03T12:24:34.044Z,245
2017-04-03T12:25:33.798Z,245
2017-04-03T12:26:33.532Z,240
2017-04-03T12:27:34.184Z,240
2017-04-03T12:28:33.615Z,235
2017-04-03T12:29:33.950Z,235
2017-04-03T12:30:33.699Z,235
2017-04-03T12:31:33.739Z,235
2017-04-03T12:32:33.773Z,230
2017-04-03T12:33:34.546Z,235
2017-04-03T12:34:34.459Z,235
2017-04-03T12:35:33.906Z,235
2017-04-03T12:36:34.240Z,235
2017-04-03T12:37:34.290Z,235
2017-04-03T12:38:34.338Z,230
2017-04-03T12:39:34.060Z,230
2017-04-03T12:40:34.112Z,230
2017-04-03T12:41:34.460Z,230
2017-04-03T12:42:34.183Z,230
2017-04-03T12:43:34.240Z,225
2017-04-03T12:44:34.870Z,220
2017-04-03T12:45:34.929Z,215
2017-04-03T12:46:34.970Z,210
2017-04-03T12:47:34.432Z,210
2017-04-03T12:48:34.747Z,205
2017-04-03T12:49:34.788Z,205
2017-04-03T12:50:34.833Z,200
2017-04-03T12:51:34.856Z,200
2017-04-03T12:52:34.611Z,200
2017-04-03T12:53:34.649Z,195
2017-04-03T12:54:35.593Z,200
2017-04-03T12:55:35.041Z,195
2017-04-03T12:56:35.057Z,195
2017-04-03T12:57:35.446Z,190
2017-04-03T12:58:34.855Z,185
2017-04-03T12:59:35.300Z,185
2017-04-03T13:00:35.220Z,185
2017-04-03T13:01:34.954Z,185
2017-04-03T13:02:34.999Z,185
2017-04-03T13:03:35.114Z,180
2017-04-03T13:04:35.382Z,180
2017-04-03T13:05:35.435Z,180
2017-04-03T13:06:35.169Z,180
2017-04-03T13:07:35.210Z,185
2017-04-03T13:08:35.845Z,180
2017-04-03T13:09:35.282Z,185
2017-04-03T13:10:35.343Z,190
2017-04-03T13:11:35.371Z,205
2017-04-03T13:12:35.524Z,200
2017-04-03T13:13:35.866Z,190
2017-04-03T13:14:36.094Z,185
2017-04-03T13:15:35.834Z,185
2017-04-03T13:16:35.868Z,180
2017-04-03T13:17:35.906Z,180
2017-04-03T13:18:36.245Z,200
2017-04-03T13:19:35.684Z,185
2017-04-03T13:20:35.733Z,175
2017-04-03T13:21:36.372Z,180
2017-04-03T13:22:36.106Z,190
2017-04-03T13:23:36.448Z,200
2017-04-03T13:24:35.892Z,190
2017-04-03T13:25:35.928Z,195
2017-04-03T13:26:35.965Z,210
2017-04-03T13:27:36.149Z,215
2017-04-03T13:28:36.361Z,205
2017-04-03T13:29:36.401Z,200
2017-04-03T13:30:36.444Z,195
2017-04-03T13:31:36.314Z,180
2017-04-03T13:32:36.220Z,180
2017-04-03T13:33:36.256Z,200
2017-04-03T13:34:36.597Z,230
2017-04-03T13:35:36.645Z,240
2017-04-03T13:36:36.688Z,245
2017-04-03T13:37:37.031Z,225
2017-04-03T13:38:37.054Z,195
2017-04-03T13:39:36.545Z,175
2017-04-03T13:40:36.547Z,185
2017-04-03T13:41:36.874Z,170
2017-04-03T13:42:36.619Z,175
2017-04-03T13:43:37.372Z,160
2017-04-03T13:44:37.031Z,165
2017-04-03T13:45:37.052Z,175
2017-04-03T13:46:37.098Z,200
2017-04-03T13:47:36.848Z,190
2017-04-03T13:48:37.208Z,170
2017-04-03T13:49:37.204Z,155
2017-04-03T13:50:37.255Z,155
2017-04-03T13:51:37.298Z,160
2017-04-03T13:52:37.012Z,160
2017-04-03T13:53:37.354Z,150
2017-04-03T13:54:37.267Z,160
2017-04-03T13:55:37.130Z,160
2017-04-03T13:56:37.171Z,160
2017-04-03T13:57:37.216Z,160
2017-04-03T13:58:37.558Z,180
2017-04-03T13:59:37.288Z,175
2017-04-03T14:00:37.347Z,160
2017-04-03T14:01:38.296Z,155
2017-04-03T14:02:38.032Z,155
2017-04-03T14:03:37.464Z,150
2017-04-03T14:04:37.509Z,150
2017-04-03T14:05:37.532Z,145
2017-04-03T14:06:37.573Z,145
2017-04-03T14:07:37.914Z,145
2017-04-03T14:08:37.970Z,140
2017-04-03T14:09:38.014Z,145
2017-04-03T14:10:38.651Z,145
2017-04-03T14:11:37.784Z,145
2017-04-03T14:12:37.811Z,145
2017-04-03T14:13:38.171Z,145
2017-04-03T14:14:38.528Z,140
2017-04-03T14:15:38.239Z,145
2017-04-03T14:16:38.291Z,150
2017-04-03T14:17:38.314Z,135
2017-04-03T14:18:38.393Z,130
2017-04-03T14:19:38.148Z,135
2017-04-03T14:20:38.194Z,140
2017-04-03T14:21:38.178Z,135
2017-04-03T14:22:38.520Z,135
2017-04-03T14:23:38.271Z,135
2017-04-03T14:24:38.608Z,140
2017-04-03T14:25:38.956Z,130
2017-04-03T14:26:38.727Z,140
2017-04-03T14:27:38.766Z,130
2017-04-03T14:28:38.460Z,130
2017-04-03T14:29:39.139Z,135
2017-04-03T14:30:38.849Z,140
2017-04-03T14:31:38.581Z,140
2017-04-03T14:32:38.616Z,135
2017-04-03T14:33:38.664Z,125
2017-04-03T14:34:38.708Z,125
2017-04-03T14:35:38.740Z,130
2017-04-03T14:36:39.093Z,130
2017-04-03T14:37:39.126Z,125
2017-04-03T14:38:38.846Z,130
2017-04-03T14:39:38.886Z,120
2017-04-03T14:40:38.953Z,120
2017-04-03T14:41:39.275Z,120
2017-04-03T14:42:39.021Z,120
2017-04-03T14:43:39.052Z,125
2017-04-03T14:44:39.402Z,120
2017-04-03T14:45:39.133Z,120
2017-04-03T14:46:39.383Z,125
2017-04-03T14:47:39.213Z,120
2017-04-03T14:48:39.864Z,125
2017-04-03T14:49:39.597Z,130
2017-04-03T14:50:39.329Z,130
2017-04-03T14:51:39.377Z,130
2017-04-03T14:52:39.416Z,130
2017-04-03T14:53:39.743Z,130
2017-04-03T14:54:39.799Z,130
2017-04-03T14:55:40.142Z,130
2017-04-03T14:56:39.559Z,130
2017-04-03T14:57:39.603Z,130
2017-04-03T14:58:40.261Z,130
2017-04-03T14:59:39.992Z,135
2017-04-03T15:00:40.036Z,135
2017-04-03T15:01:39.769Z,125
2017-04-03T15:02:39.804Z,130
2017-04-03T15:03:40.453Z,130
2017-04-03T15:04:40.188Z,135
2017-04-03T15:05:39.933Z,140
2017-04-03T15:06:39.965Z,140
2017-04-03T15:07:40.004Z,140
2017-04-03T15:08:40.343Z,140
2017-04-03T15:09:40.074Z,140
2017-04-03T15:10:40.130Z,135
2017-04-03T15:11:40.486Z,135
2017-04-03T15:12:40.874Z,135
2017-04-03T15:13:40.235Z,140
2017-04-03T15:14:40.276Z,135
2017-04-03T15:15:40.630Z,135
2017-04-03T15:16:40.369Z,145
2017-04-03T15:17:40.717Z,145
2017-04-03T15:18:40.766Z,160
2017-04-03T15:19:41.393Z,165
2017-04-03T15:20:40.557Z,155
2017-04-03T15:21:40.552Z,145
2017-04-03T15:22:40.901Z,135
2017-04-03T15:23:40.941Z,140
2017-04-03T15:24:40.681Z,155
2017-04-03T15:25:40.711Z,150
2017-04-03T15:26:41.056Z,140
2017-04-03T15:27:41.088Z,140
2017-04-03T15:28:41.430Z,140
2017-04-03T15:29:41.470Z,140
2017-04-03T15:30:41.220Z,145
2017-04-03T15:31:41.250Z,145
2017-04-03T15:32:41.290Z,140
2017-04-03T15:33:41.338Z,140
2017-04-03T15:34:41.678Z,140
2017-04-03T15:35:50.660Z,135
2017-04-03T15:36:41.457Z,125
2017-04-03T15:37:42.086Z,115
2017-04-03T15:38:41.531Z,110
2017-04-03T15:39:41.570Z,110
2017-04-03T15:40:41.603Z,110
2017-04-03T15:41:41.661Z,110
2017-04-03T15:42:41.695Z,105
2017-04-03T15:43:41.432Z,100
2017-04-03T15:44:42.064Z,100
2017-04-03T15:45:42.112Z,100
2017-04-03T15:46:41.837Z,95
2017-04-03T15:47:41.832Z,95
2017-04-03T15:48:41.930Z,90
2017-04-03T15:49:42.583Z,85
2017-04-03T15:50:41.703Z,85
2017-04-03T15:51:41.788Z,85
2017-04-03T15:52:42.373Z,90
2017-04-03T15:53:41.812Z,90
2017-04-03T15:54:41.865Z,90
2017-04-03T15:55:42.197Z,85
2017-04-03T15:56:42.227Z,80
2017-04-03T15:57:42.018Z,80
2017-04-03T15:58:42.912Z,80
2017-04-03T15:59:42.057Z,80
2017-04-03T16:00:42.399Z,80
2017-04-03T16:01:42.728Z,80
2017-04-03T16:02:42.167Z,80
2017-04-03T16:03:42.202Z,80
2017-04-03T16:04:42.846Z,80
2017-04-03T16:05:42.297Z,80
2017-04-03T16:06:42.623Z,80
2017-04-03T16:07:42.360Z,80
2017-04-03T16:08:42.703Z,85
2017-04-03T16:09:42.439Z,90
2017-04-03T16:10:42.815Z,90
2017-04-03T16:11:42.827Z,90
2017-04-03T16:12:42.555Z,85
2017-04-03T16:13:42.890Z,80
2017-04-03T16:14:42.636Z,75
2017-04-03T16:15:42.733Z,75
2017-04-03T16:16:42.951Z,75
2017-04-03T16:17:43.366Z,75
2017-04-03T16:18:42.794Z,75
2017-04-03T16:19:42.830Z,80
2017-04-03T16:20:43.170Z,80
2017-04-03T16:21:43.224Z,80
2017-04-03T16:22:43.262Z,80
2017-04-03T16:23:42.983Z,75
2017-04-03T16:24:43.347Z,70
2017-04-03T16:25:43.677Z,70
2017-04-03T16:26:43.109Z,65
2017-04-03T16:27:43.438Z,65
2017-04-03T16:28:43.475Z,65
2017-04-03T16:29:43.817Z,60
2017-04-03T16:30:43.254Z,55
2017-04-03T16:31:43.890Z,55
2017-04-03T16:32:43.341Z,55
2017-04-03T16:33:43.381Z,55
2017-04-03T16:34:43.421Z,55
2017-04-03T16:35:43.764Z,55
2017-04-03T16:36:43.486Z,55
2017-04-03T16:37:43.849Z,55
2017-04-03T16:38:43.560Z,50
2017-04-03T16:39:43.610Z,50
2017-04-03T16:40:43.957Z,50
2017-04-03T16:41:43.741Z,50
2017-04-03T16:42:44.323Z,50
2017-04-03T16:43:43.764Z,50
2017-04-03T16:44:43.797Z,45
2017-04-03T16:45:44.138Z,45
2017-04-03T16:46:44.196Z,45
2017-04-03T16:47:43.918Z,45
2017-04-03T16:48:43.948Z,40
2017-04-03T16:49:44.300Z,40
2017-04-03T16:50:44.328Z,40
2017-04-03T16:51:44.383Z,40
2017-04-03T16:52:44.125Z,40
2017-04-03T16:53:44.161Z,35
2017-04-03T16:54:44.179Z,35
2017-04-03T16:55:44.544Z,35
2017-04-03T16:56:44.262Z,35
2017-04-03T16:57:44.916Z,30
2017-04-03T16:58:44.644Z,30
2017-04-03T16:59:44.383Z,30
2017-04-03T17:00:44.715Z,30
2017-04-03T17:01:44.451Z,25
2017-04-03T17:02:44.490Z,25
2017-04-03T17:03:44.534Z,25
2017-04-03T17:04:44.881Z,25
2017-04-03T17:05:44.615Z,20
2017-04-03T17:06:44.944Z,20
2017-04-03T17:07:44.998Z,20
2017-04-03T17:08:45.035Z,15
2017-04-03T17:09:45.074Z,15
2017-04-03T17:10:45.122Z,15
2017-04-03T17:11:45.145Z,15
2017-04-03T17:12:44.885Z,10
2017-04-03T17:13:45.233Z,10
2017-04-03T17:14:44.957Z,10
2017-04-03T17:15:45.305Z,10
2017-04-03T17:16:45.336Z,10
2017-04-03T17:17:45.069Z,10
2017-04-03T17:18:45.118Z,10
2017-04-03T17:19:45.456Z,5
2017-04-03T17:20:45.796Z,5
2017-04-03T17:21:45.523Z,5
2017-04-03T17:22:45.556Z,5
2017-04-03T17:23:45.895Z,5
2017-04-03T17:24:45.662Z,5
2017-04-03T17:25:45.383Z,5
2017-04-03T17:26:45.421Z,5
2017-04-03T17:27:45.762Z,5
2017-04-03T17:28:45.783Z,5
2017-04-03T17:29:46.143Z,5
2017-04-03T17:30:45.599Z,5
2017-04-03T17:31:45.600Z,5
2017-04-03T17:32:45.951Z,5
2017-04-03T17:33:45.991Z,5
2017-04-03T17:34:46.022Z,5
2017-04-03T17:35:45.759Z,0
2017-04-03T17:36:45.794Z,0
2017-04-03T17:37:46.142Z,0
2017-04-03T17:38:46.168Z,0
2017-04-03T17:39:46.207Z,0
2017-04-03T17:40:45.946Z,0
2017-04-03T17:41:46.881Z,0
2017-04-03T17:42:46.031Z,0
2017-04-03T17:43:46.360Z,0
2017-04-03T17:44:46.419Z,0
2017-04-03T17:45:46.433Z,0
2017-04-03T17:46:46.178Z,0
2017-04-03T17:47:46.285Z,0
2017-04-03T17:48:46.549Z,0
2017-04-03T17:49:46.898Z,0
2017-04-03T17:50:46.633Z,0
2017-04-03T17:51:46.670Z,0
2017-04-03T17:52:46.395Z,0
2017-04-03T17:53:46.445Z,0
2017-04-03T17:54:46.810Z,0
2017-04-03T17:55:47.188Z,0
2017-04-03T17:56:46.543Z,0
2017-04-03T17:57:46.897Z,0
2017-04-03T17:58:46.630Z,0
2017-04-03T17:59:46.978Z,0
2017-04-03T18:00:46.999Z,0
2017-04-03T18:01:46.736Z,0
2017-04-03T18:02:46.781Z,0
2017-04-03T18:03:46.834Z,0
2017-04-03T18:04:47.160Z,0
2017-04-03T18:05:46.899Z,0
2017-04-03T18:06:47.232Z,0
2017-04-03T18:07:47.271Z,0
2017-04-03T18:08:47.597Z,0
2017-04-03T18:09:47.348Z,0
2017-04-03T18:10:47.082Z,0
2017-04-03T18:11:47.714Z,0
2017-04-03T18:12:47.193Z,0
2017-04-03T18:13:47.183Z,0
2017-04-03T18:14:47.219Z,0
2017-04-03T18:15:47.588Z,0
2017-04-03T18:16:47.315Z,0
2017-04-03T18:17:47.340Z,0
2017-04-03T18:18:47.372Z,0
2017-04-03T18:19:47.418Z,0
2017-04-03T18:20:47.460Z,0
2017-04-03T18:21:48.087Z,0
2017-04-03T18:22:47.841Z,0
2017-04-03T18:23:47.817Z,0
2017-04-03T18:24:47.601Z,0
2017-04-03T18:25:48.243Z,0
2017-04-03T18:26:47.676Z,0
2017-04-03T18:27:47.721Z,0
2017-04-03T18:28:47.761Z,0
2017-04-03T18:29:47.791Z,0
2017-04-03T18:30:48.436Z,0
2017-04-03T18:31:47.861Z,0
2017-04-03T18:32:47.905Z,0
2017-04-03T18:33:48.252Z,0
2017-04-03T18:34:48.282Z,0
2017-04-03T18:35:48.030Z,0
2017-04-03T18:36:48.398Z,0
2017-04-03T18:37:48.094Z,0
2017-04-03T18:38:48.439Z,0
2017-04-03T18:39:48.161Z,0
2017-04-03T18:40:48.514Z,0
2017-04-03T18:41:48.248Z,0
2017-04-03T18:42:48.276Z,0
2017-04-03T18:43:48.324Z,0
2017-04-03T18:44:48.362Z,0
2017-04-03T18:45:48.406Z,0
2017-04-03T18:46:48.436Z,0
2017-04-03T18:47:48.471Z,0
2017-04-03T18:48:48.821Z,0
2017-04-03T18:49:48.550Z,0
2017-04-03T18:50:48.595Z,0
2017-04-03T18:51:48.626Z,0
2017-04-03T18:52:48.662Z,0
2017-04-03T18:53:48.993Z,0
2017-04-03T18:54:49.051Z,0
2017-04-03T18:55:49.083Z,0
2017-04-03T18:56:48.805Z,0
2017-04-03T18:57:48.850Z,0
2017-04-03T18:58:48.880Z,0
2017-04-03T18:59:49.215Z,0
2017-04-03T19:00:49.271Z,0
2017-04-03T19:01:48.992Z,0
2017-04-03T19:02:49.036Z,0
2017-04-03T19:03:49.290Z,0
2017-04-03T19:04:49.406Z,0
2017-04-03T19:05:49.158Z,0
2017-04-03T19:06:49.481Z,0
2017-04-03T19:07:49.516Z,0
2017-04-03T19:08:49.263Z,0
2017-04-03T19:09:49.894Z,0
2017-04-03T19:10:49.677Z,0
2017-04-03T19:11:49.692Z,0
2017-04-03T19:12:49.706Z,0
2017-04-03T19:13:50.058Z,0
2017-04-03T19:14:49.491Z,0
2017-04-03T19:15:49.517Z,0
2017-04-03T19:16:49.557Z,0
2017-04-03T19:17:50.493Z,0
2017-04-03T19:18:49.944Z,0
2017-04-03T19:19:50.591Z,0
2017-04-03T19:20:50.011Z,0
2017-04-03T19:21:50.653Z,0
2017-04-03T19:22:50.448Z,0
2017-04-03T19:23:50.131Z,0
2017-04-03T19:24:50.456Z,0
2017-04-03T19:25:50.498Z,0
2017-04-03T19:26:50.729Z,0
2017-04-03T19:27:50.586Z,0
2017-04-03T19:28:50.607Z,0
2017-04-03T19:29:50.448Z,0
2017-04-03T19:30:51.004Z,0
2017-04-03T19:31:51.076Z,0
2017-04-03T19:32:50.474Z,0
2017-04-03T19:33:51.109Z,0
2017-04-03T19:34:50.840Z,0
2017-04-03T19:35:50.887Z,0
2017-04-03T19:36:50.298Z,0
2017-04-03T19:37:50.334Z,0
2017-04-03T19:38:50.379Z,0
2017-04-03T19:39:50.407Z,0
2017-04-03T19:40:50.447Z,0
2017-04-03T19:41:50.500Z,0
2017-04-03T19:42:50.822Z,0
2017-04-03T19:43:50.918Z,0
2017-04-03T19:44:50.594Z,0
2017-04-03T19:45:50.647Z,0
2017-04-03T19:46:50.672Z,0
2017-04-03T19:47:51.006Z,0
2017-04-03T19:48:51.053Z,0
2017-04-03T19:49:50.797Z,0
2017-04-03T19:50:51.169Z,0
2017-04-03T19:51:51.658Z,0
2017-04-03T19:52:51.195Z,0
2017-04-03T19:53:51.234Z,0
2017-04-03T19:54:51.591Z,0
2017-04-03T19:55:51.077Z,0
2017-04-03T19:56:51.042Z,0
2017-04-03T19:57:51.084Z,0
2017-04-03T19:58:51.119Z,0
2017-04-03T19:59:51.207Z,0
2017-04-03T20:00:51.203Z,0
2017-04-03T20:01:51.295Z,0
2017-04-03T20:02:51.303Z,0
2017-04-03T20:03:51.973Z,0
2017-04-03T20:04:51.671Z,0
2017-04-03T20:05:51.389Z,0
2017-04-03T20:06:51.725Z,0
2017-04-03T20:07:52.402Z,0
2017-04-03T20:08:51.493Z,0
2017-04-03T20:09:51.524Z,0
2017-04-03T20:10:51.578Z,0
2017-04-03T20:11:51.901Z,0
2017-04-03T20:12:51.937Z,0
2017-04-03T20:13:51.678Z,0
2017-04-03T20:14:52.055Z,0
2017-04-03T20:15:51.760Z,0
2017-04-03T20:16:51.903Z,0
2017-04-03T20:17:52.130Z,0
2017-04-03T20:18:52.166Z,0
2017-04-03T20:19:51.915Z,0
2017-04-03T20:20:51.934Z,0
2017-04-03T20:21:52.605Z,0
2017-04-03T20:22:52.010Z,0
2017-04-03T20:23:52.077Z,0
2017-04-03T20:24:52.100Z,0
2017-04-03T20:25:52.127Z,0
2017-04-03T20:26:52.465Z,0
2017-04-03T20:27:52.196Z,0
2017-04-03T20:28:52.230Z,0
2017-04-03T20:29:52.281Z,0
2017-04-03T20:30:52.319Z,0
2017-04-03T20:31:52.355Z,0
2017-04-03T20:32:52.387Z,0
2017-04-03T20:33:52.420Z,0
2017-04-03T20:34:53.071Z,0
2017-04-03T20:35:52.517Z,0
2017-04-03T20:36:52.527Z,0
2017-04-03T20:37:52.866Z,0
2017-04-03T20:38:52.912Z,0
2017-04-03T20:39:53.259Z,0
2017-04-03T20:40:52.994Z,0
2017-04-03T20:41:53.642Z,0
2017-04-03T20:42:53.372Z,0
2017-04-03T20:43:53.391Z,0
2017-04-03T20:44:53.444Z,0
2017-04-03T20:45:53.482Z,0
2017-04-03T20:46:53.537Z,0
2017-04-03T20:47:54.159Z,0
2017-04-03T20:48:53.289Z,0
2017-04-03T20:49:53.615Z,0
2017-04-03T20:50:53.648Z,0
2017-04-03T20:51:53.404Z,0
2017-04-03T20:52:54.030Z,0
2017-04-03T20:53:53.782Z,0
2017-04-03T20:54:53.807Z,0
2017-04-03T20:55:54.151Z,0
2017-04-03T20:56:53.524Z,0
2017-04-03T20:57:53.304Z,0
2017-04-03T20:58:53.368Z,0
2017-04-03T20:59:53.689Z,0
2017-04-03T21:00:54.022Z,0
2017-04-03T21:01:53.757Z,0
2017-04-03T21:02:53.797Z,0
2017-04-03T21:03:53.535Z,0